sensor_id;sensor_type;location;lat;lon;timestamp;pressure;altitude;pressure_sealevel;temperature;humidity
36014;BME280;22275;43.208;27.620;2023-08-01T00:00:17;100762.34;;;25.21;100.00
36014;BME280;22275;43.208;27.620;2023-08-01T00:03:23;100772.63;;;24.66;100.00
36014;BME280;22275;43.208;27.620;2023-08-01T00:05:50;100771.59;;;24.44;100.00
36014;BME280;22275;43.208;27.620;2023-08-01T00:08:17;100758.97;;;24.44;100.00
36014;BME280;22275;43.208;27.620;2023-08-01T00:10:44;100765.63;;;24.56;100.00
36014;BME280;22275;43.208;27.620;2023-08-01T00:13:12;100769.44;;;23.86;100.00
36014;BME280;22275;43.208;27.620;2023-08-01T00:15:39;100764.56;;;24.43;100.00
36014;BME280;22275;43.208;27.620;2023-08-01T00:18:06;100765.34;;;23.90;100.00
36014;BME280;22275;43.208;27.620;2023-08-01T00:20:35;100757.47;;;23.88;100.00
36014;BME280;22275;43.208;27.620;2023-08-01T00:23:02;100758.03;;;23.76;100.00
36014;BME280;22275;43.208;27.620;2023-08-01T00:25:29;100757.69;;;23.79;100.00
36014;BME280;22275;43.208;27.620;2023-08-01T00:27:56;100745.75;;;24.04;100.00
36014;BME280;22275;43.208;27.620;2023-08-01T00:30:23;100752.03;;;24.27;100.00
36014;BME280;22275;43.208;27.620;2023-08-01T00:32:51;100759.09;;;23.67;100.00
36014;BME280;22275;43.208;27.620;2023-08-01T00:35:18;100764.41;;;23.44;100.00
36014;BME280;22275;43.208;27.620;2023-08-01T00:37:46;100753.91;;;23.57;100.00
36014;BME280;22275;43.208;27.620;2023-08-01T00:40:14;100754.66;;;23.35;100.00
36014;BME280;22275;43.208;27.620;2023-08-01T00:42:42;100750.81;;;23.29;100.00
36014;BME280;22275;43.208;27.620;2023-08-01T00:45:10;100752.81;;;23.35;100.00
36014;BME280;22275;43.208;27.620;2023-08-01T00:47:38;100749.13;;;23.28;100.00
36014;BME280;22275;43.208;27.620;2023-08-01T00:50:07;100747.47;;;23.11;100.00
36014;BME280;22275;43.208;27.620;2023-08-01T00:52:34;100748.50;;;23.02;100.00
36014;BME280;22275;43.208;27.620;2023-08-01T00:55:04;100747.84;;;22.92;100.00
36014;BME280;22275;43.208;27.620;2023-08-01T00:57:31;100744.38;;;22.67;100.00
36014;BME280;22275;43.208;27.620;2023-08-01T00:59:59;100734.94;;;22.55;100.00
36014;BME280;22275;43.208;27.620;2023-08-01T01:02:26;100750.19;;;22.55;100.00
36014;BME280;22275;43.208;27.620;2023-08-01T01:04:54;100749.69;;;22.43;100.00
36014;BME280;22275;43.208;27.620;2023-08-01T01:07:21;100739.28;;;22.97;100.00
36014;BME280;22275;43.208;27.620;2023-08-01T01:09:50;100745.16;;;22.44;100.00
36014;BME280;22275;43.208;27.620;2023-08-01T01:12:18;100745.81;;;22.54;100.00
36014;BME280;22275;43.208;27.620;2023-08-01T01:14:45;100739.97;;;22.58;100.00
36014;BME280;22275;43.208;27.620;2023-08-01T01:17:13;100731.91;;;22.50;100.00
36014;BME280;22275;43.208;27.620;2023-08-01T01:19:40;100734.75;;;22.57;100.00
36014;BME280;22275;43.208;27.620;2023-08-01T01:22:10;100746.84;;;22.61;100.00
36014;BME280;22275;43.208;27.620;2023-08-01T01:24:39;100742.16;;;22.55;100.00
36014;BME280;22275;43.208;27.620;2023-08-01T01:27:08;100729.41;;;22.65;100.00
36014;BME280;22275;43.208;27.620;2023-08-01T01:29:37;100737.44;;;22.57;100.00
36014;BME280;22275;43.208;27.620;2023-08-01T01:32:06;100731.22;;;22.48;100.00
36014;BME280;22275;43.208;27.620;2023-08-01T01:34:34;100738.47;;;22.48;100.00
36014;BME280;22275;43.208;27.620;2023-08-01T01:37:01;100732.91;;;22.49;100.00
36014;BME280;22275;43.208;27.620;2023-08-01T01:39:30;100734.47;;;22.76;100.00
36014;BME280;22275;43.208;27.620;2023-08-01T01:41:57;100736.78;;;22.30;100.00
36014;BME280;22275;43.208;27.620;2023-08-01T01:44:25;100737.13;;;22.44;100.00
36014;BME280;22275;43.208;27.620;2023-08-01T01:46:54;100734.56;;;22.42;100.00
36014;BME280;22275;43.208;27.620;2023-08-01T01:49:21;100730.41;;;22.56;100.00
36014;BME280;22275;43.208;27.620;2023-08-01T01:51:48;100733.44;;;22.69;100.00
36014;BME280;22275;43.208;27.620;2023-08-01T01:54:15;100734.78;;;22.65;100.00
36014;BME280;22275;43.208;27.620;2023-08-01T01:56:44;100733.75;;;22.98;100.00
36014;BME280;22275;43.208;27.620;2023-08-01T01:59:11;100734.59;;;22.90;100.00
36014;BME280;22275;43.208;27.620;2023-08-01T02:01:38;100732.09;;;22.73;100.00
36014;BME280;22275;43.208;27.620;2023-08-01T02:04:06;100732.44;;;22.70;100.00
36014;BME280;22275;43.208;27.620;2023-08-01T02:06:33;100730.41;;;22.72;100.00
36014;BME280;22275;43.208;27.620;2023-08-01T02:09:00;100730.94;;;22.67;100.00
36014;BME280;22275;43.208;27.620;2023-08-01T02:11:28;100734.94;;;22.71;100.00
36014;BME280;22275;43.208;27.620;2023-08-01T02:13:56;100730.59;;;22.70;100.00
36014;BME280;22275;43.208;27.620;2023-08-01T02:16:23;100738.16;;;22.67;100.00
36014;BME280;22275;43.208;27.620;2023-08-01T02:18:51;100742.84;;;22.73;100.00
36014;BME280;22275;43.208;27.620;2023-08-01T02:21:18;100743.84;;;22.64;100.00
36014;BME280;22275;43.208;27.620;2023-08-01T02:23:45;100746.19;;;22.59;100.00
36014;BME280;22275;43.208;27.620;2023-08-01T02:26:12;100746.84;;;22.53;100.00
36014;BME280;22275;43.208;27.620;2023-08-01T02:28:40;100759.94;;;22.56;100.00
36014;BME280;22275;43.208;27.620;2023-08-01T02:31:08;100752.56;;;22.66;100.00
36014;BME280;22275;43.208;27.620;2023-08-01T02:33:36;100755.84;;;23.16;100.00
36014;BME280;22275;43.208;27.620;2023-08-01T02:36:03;100762.28;;;22.91;100.00
36014;BME280;22275;43.208;27.620;2023-08-01T02:38:30;100754.59;;;22.72;100.00
36014;BME280;22275;43.208;27.620;2023-08-01T02:40:58;100753.59;;;22.81;100.00
36014;BME280;22275;43.208;27.620;2023-08-01T02:43:25;100756.09;;;22.74;100.00
36014;BME280;22275;43.208;27.620;2023-08-01T02:45:52;100757.25;;;22.80;100.00
36014;BME280;22275;43.208;27.620;2023-08-01T02:48:21;100757.94;;;22.66;100.00
36014;BME280;22275;43.208;27.620;2023-08-01T02:50:48;100761.63;;;22.81;100.00
36014;BME280;22275;43.208;27.620;2023-08-01T02:53:15;100766.78;;;23.15;100.00
36014;BME280;22275;43.208;27.620;2023-08-01T02:55:44;100767.94;;;23.20;100.00
36014;BME280;22275;43.208;27.620;2023-08-01T02:58:12;100750.06;;;23.52;100.00
36014;BME280;22275;43.208;27.620;2023-08-01T03:00:40;100758.31;;;23.50;100.00
36014;BME280;22275;43.208;27.620;2023-08-01T03:03:07;100762.91;;;23.25;100.00
36014;BME280;22275;43.208;27.620;2023-08-01T03:05:37;100766.41;;;23.42;100.00
36014;BME280;22275;43.208;27.620;2023-08-01T03:08:05;100764.56;;;23.34;100.00
36014;BME280;22275;43.208;27.620;2023-08-01T03:10:32;100764.56;;;23.34;100.00
36014;BME280;22275;43.208;27.620;2023-08-01T03:12:59;100764.22;;;23.45;100.00
36014;BME280;22275;43.208;27.620;2023-08-01T03:15:27;100773.13;;;23.46;100.00
36014;BME280;22275;43.208;27.620;2023-08-01T03:17:54;100764.41;;;23.44;100.00
36014;BME280;22275;43.208;27.620;2023-08-01T03:20:21;100769.84;;;23.67;100.00
36014;BME280;22275;43.208;27.620;2023-08-01T03:22:50;100763.84;;;23.57;100.00
36014;BME280;22275;43.208;27.620;2023-08-01T03:25:17;100764.75;;;23.80;100.00
36014;BME280;22275;43.208;27.620;2023-08-01T03:27:44;100770.91;;;23.58;100.00
36014;BME280;22275;43.208;27.620;2023-08-01T03:30:12;100771.44;;;23.45;100.00
36014;BME280;22275;43.208;27.620;2023-08-01T03:32:40;100768.94;;;23.35;100.00
36014;BME280;22275;43.208;27.620;2023-08-01T03:35:07;100769.06;;;23.89;100.00
36014;BME280;22275;43.208;27.620;2023-08-01T03:37:34;100775.09;;;23.60;100.00
36014;BME280;22275;43.208;27.620;2023-08-01T03:40:03;100779.66;;;23.52;100.00
36014;BME280;22275;43.208;27.620;2023-08-01T03:42:30;100773.97;;;23.47;100.00
36014;BME280;22275;43.208;27.620;2023-08-01T03:44:58;100775.91;;;23.69;100.00
36014;BME280;22275;43.208;27.620;2023-08-01T03:47:25;100779.53;;;23.76;100.00
36014;BME280;22275;43.208;27.620;2023-08-01T03:49:52;100781.78;;;23.64;100.00
36014;BME280;22275;43.208;27.620;2023-08-01T03:52:19;100785.69;;;23.54;100.00
36014;BME280;22275;43.208;27.620;2023-08-01T03:54:48;100778.66;;;23.53;100.00
36014;BME280;22275;43.208;27.620;2023-08-01T03:57:16;100793.44;;;23.49;100.00
36014;BME280;22275;43.208;27.620;2023-08-01T03:59:44;100791.44;;;23.42;100.00
36014;BME280;22275;43.208;27.620;2023-08-01T04:02:11;100785.06;;;23.27;100.00
36014;BME280;22275;43.208;27.620;2023-08-01T04:04:38;100797.34;;;23.22;100.00
36014;BME280;22275;43.208;27.620;2023-08-01T04:07:05;100792.50;;;23.09;100.00
36014;BME280;22275;43.208;27.620;2023-08-01T04:09:33;100788.66;;;23.04;100.00
36014;BME280;22275;43.208;27.620;2023-08-01T04:12:00;100791.81;;;22.99;100.00
36014;BME280;22275;43.208;27.620;2023-08-01T04:14:29;100788.78;;;23.10;100.00
36014;BME280;22275;43.208;27.620;2023-08-01T04:16:56;100799.53;;;23.26;100.00
36014;BME280;22275;43.208;27.620;2023-08-01T04:19:23;100797.84;;;23.17;100.00
36014;BME280;22275;43.208;27.620;2023-08-01T04:21:51;100795.81;;;23.27;100.00
36014;BME280;22275;43.208;27.620;2023-08-01T04:24:18;100793.81;;;23.29;100.00
36014;BME280;22275;43.208;27.620;2023-08-01T04:26:45;100797.47;;;23.36;100.00
36014;BME280;22275;43.208;27.620;2023-08-01T04:29:12;100792.13;;;23.28;100.00
36014;BME280;22275;43.208;27.620;2023-08-01T04:31:43;100796.16;;;23.40;100.00
36014;BME280;22275;43.208;27.620;2023-08-01T04:34:10;100795.13;;;23.50;100.00
36014;BME280;22275;43.208;27.620;2023-08-01T04:36:37;100790.09;;;23.47;100.00
36014;BME280;22275;43.208;27.620;2023-08-01T04:39:05;100782.53;;;23.42;100.00
36014;BME280;22275;43.208;27.620;2023-08-01T04:41:32;100791.59;;;23.49;100.00
36014;BME280;22275;43.208;27.620;2023-08-01T04:43:59;100797.13;;;23.48;100.00
36014;BME280;22275;43.208;27.620;2023-08-01T04:46:27;100790.06;;;23.93;100.00
36014;BME280;22275;43.208;27.620;2023-08-01T04:48:55;100790.66;;;23.73;100.00
36014;BME280;22275;43.208;27.620;2023-08-01T04:51:23;100790.94;;;23.86;100.00
36014;BME280;22275;43.208;27.620;2023-08-01T04:53:50;100796.19;;;24.41;100.00
36014;BME280;22275;43.208;27.620;2023-08-01T04:56:17;100790.22;;;24.31;100.00
36014;BME280;22275;43.208;27.620;2023-08-01T04:58:44;100808.28;;;24.45;100.00
36014;BME280;22275;43.208;27.620;2023-08-01T05:01:11;100798.09;;;24.32;100.00
36014;BME280;22275;43.208;27.620;2023-08-01T05:03:39;100796.69;;;24.90;100.00
36014;BME280;22275;43.208;27.620;2023-08-01T05:06:07;100788.38;;;25.14;100.00
36014;BME280;22275;43.208;27.620;2023-08-01T05:08:35;100789.16;;;25.52;100.00
36014;BME280;22275;43.208;27.620;2023-08-01T05:11:02;100791.56;;;24.95;100.00
36014;BME280;22275;43.208;27.620;2023-08-01T05:13:29;100798.88;;;25.24;100.00
36014;BME280;22275;43.208;27.620;2023-08-01T05:15:56;100797.13;;;25.16;100.00
36014;BME280;22275;43.208;27.620;2023-08-01T05:18:23;100793.50;;;25.38;100.00
36014;BME280;22275;43.208;27.620;2023-08-01T05:20:51;100792.84;;;25.36;100.00
36014;BME280;22275;43.208;27.620;2023-08-01T05:23:19;100795.47;;;25.44;100.00
36014;BME280;22275;43.208;27.620;2023-08-01T05:25:46;100798.47;;;25.49;100.00
36014;BME280;22275;43.208;27.620;2023-08-01T05:28:14;100798.25;;;25.80;100.00
36014;BME280;22275;43.208;27.620;2023-08-01T05:30:41;100799.44;;;26.21;100.00
36014;BME280;22275;43.208;27.620;2023-08-01T05:33:09;100794.75;;;26.30;100.00
36014;BME280;22275;43.208;27.620;2023-08-01T05:35:36;100804.78;;;26.36;100.00
36014;BME280;22275;43.208;27.620;2023-08-01T05:38:03;100798.91;;;26.54;100.00
36014;BME280;22275;43.208;27.620;2023-08-01T05:40:32;100792.19;;;27.13;100.00
36014;BME280;22275;43.208;27.620;2023-08-01T05:42:59;100805.56;;;26.94;100.00
36014;BME280;22275;43.208;27.620;2023-08-01T05:45:27;100805.41;;;26.59;100.00
36014;BME280;22275;43.208;27.620;2023-08-01T05:47:54;100788.78;;;27.05;100.00
36014;BME280;22275;43.208;27.620;2023-08-01T05:50:21;100788.72;;;27.47;100.00
36014;BME280;22275;43.208;27.620;2023-08-01T05:52:48;100780.16;;;27.50;100.00
36014;BME280;22275;43.208;27.620;2023-08-01T05:55:15;100775.28;;;27.39;100.00
36014;BME280;22275;43.208;27.620;2023-08-01T05:57:44;100773.06;;;27.83;100.00
36014;BME280;22275;43.208;27.620;2023-08-01T06:00:12;100777.63;;;27.42;100.00
36014;BME280;22275;43.208;27.620;2023-08-01T06:02:40;100785.75;;;27.83;100.00
36014;BME280;22275;43.208;27.620;2023-08-01T06:05:07;100779.88;;;28.27;100.00
36014;BME280;22275;43.208;27.620;2023-08-01T06:07:35;100780.31;;;28.24;100.00
36014;BME280;22275;43.208;27.620;2023-08-01T06:10:02;100775.06;;;27.68;100.00
36014;BME280;22275;43.208;27.620;2023-08-01T06:12:30;100772.56;;;28.14;100.00
36014;BME280;22275;43.208;27.620;2023-08-01T06:14:58;100770.06;;;28.13;100.00
36014;BME280;22275;43.208;27.620;2023-08-01T06:17:25;100767.63;;;27.77;100.00
36014;BME280;22275;43.208;27.620;2023-08-01T06:19:53;100765.47;;;28.13;100.00
36014;BME280;22275;43.208;27.620;2023-08-01T06:22:20;100770.06;;;28.13;100.00
36014;BME280;22275;43.208;27.620;2023-08-01T06:24:47;100759.91;;;28.34;100.00
36014;BME280;22275;43.208;27.620;2023-08-01T06:27:14;100763.25;;;28.56;100.00
36014;BME280;22275;43.208;27.620;2023-08-01T06:29:43;100760.63;;;28.69;100.00
36014;BME280;22275;43.208;27.620;2023-08-01T06:32:12;100750.56;;;28.96;100.00
36014;BME280;22275;43.208;27.620;2023-08-01T06:34:39;100755.94;;;28.30;100.00
36014;BME280;22275;43.208;27.620;2023-08-01T06:37:06;100758.03;;;28.28;100.00
36014;BME280;22275;43.208;27.620;2023-08-01T06:39:33;100742.59;;;29.21;100.00
36014;BME280;22275;43.208;27.620;2023-08-01T06:42:00;100745.94;;;29.16;100.00
36014;BME280;22275;43.208;27.620;2023-08-01T06:44:28;100740.50;;;29.29;100.00
36014;BME280;22275;43.208;27.620;2023-08-01T06:46:55;100750.72;;;29.40;100.00
36014;BME280;22275;43.208;27.620;2023-08-01T06:49:24;100736.34;;;29.20;100.00
36014;BME280;22275;43.208;27.620;2023-08-01T06:51:51;100745.56;;;28.73;100.00
36014;BME280;22275;43.208;27.620;2023-08-01T06:54:18;100744.31;;;28.63;100.00
36014;BME280;22275;43.208;27.620;2023-08-01T06:56:46;100738.06;;;28.75;100.00
36014;BME280;22275;43.208;27.620;2023-08-01T06:59:14;100735.13;;;29.23;100.00
36014;BME280;22275;43.208;27.620;2023-08-01T07:01:41;100733.03;;;29.12;100.00
36014;BME280;22275;43.208;27.620;2023-08-01T07:04:09;100732.00;;;29.06;100.00
36014;BME280;22275;43.208;27.620;2023-08-01T07:06:38;100726.66;;;29.57;100.00
36014;BME280;22275;43.208;27.620;2023-08-01T07:09:06;100732.41;;;29.80;100.00
36014;BME280;22275;43.208;27.620;2023-08-01T07:11:33;100729.06;;;29.85;100.00
36014;BME280;22275;43.208;27.620;2023-08-01T07:14:00;100730.25;;;30.02;100.00
36014;BME280;22275;43.208;27.620;2023-08-01T07:16:28;100715.56;;;30.09;100.00
36014;BME280;22275;43.208;27.620;2023-08-01T07:18:55;100724.41;;;29.98;100.00
36014;BME280;22275;43.208;27.620;2023-08-01T07:21:22;100726.56;;;29.26;100.00
36014;BME280;22275;43.208;27.620;2023-08-01T07:23:51;100722.41;;;29.81;100.00
36014;BME280;22275;43.208;27.620;2023-08-01T07:26:18;100715.13;;;29.68;100.00
36014;BME280;22275;43.208;27.620;2023-08-01T07:28:46;100720.47;;;29.37;100.00
36014;BME280;22275;43.208;27.620;2023-08-01T07:31:13;100718.28;;;29.65;100.00
36014;BME280;22275;43.208;27.620;2023-08-01T07:33:40;100721.84;;;30.03;100.00
36014;BME280;22275;43.208;27.620;2023-08-01T07:36:07;100712.47;;;30.37;100.00
36014;BME280;22275;43.208;27.620;2023-08-01T07:38:34;100714.53;;;30.42;100.00
36014;BME280;22275;43.208;27.620;2023-08-01T07:41:04;100723.38;;;30.31;100.00
36014;BME280;22275;43.208;27.620;2023-08-01T07:43:33;100708.22;;;30.48;100.00
36014;BME280;22275;43.208;27.620;2023-08-01T07:46:00;100704.59;;;30.54;100.00
36014;BME280;22275;43.208;27.620;2023-08-01T07:48:27;100712.56;;;30.49;100.00
36014;BME280;22275;43.208;27.620;2023-08-01T07:50:54;100716.50;;;29.90;100.00
36014;BME280;22275;43.208;27.620;2023-08-01T07:53:21;100708.13;;;30.23;100.00
36014;BME280;22275;43.208;27.620;2023-08-01T07:55:48;100716.38;;;30.10;100.00
36014;BME280;22275;43.208;27.620;2023-08-01T07:58:17;100708.81;;;30.18;100.00
36014;BME280;22275;43.208;27.620;2023-08-01T08:00:44;100711.72;;;30.17;100.00
36014;BME280;22275;43.208;27.620;2023-08-01T08:03:11;100699.22;;;30.47;100.00
36014;BME280;22275;43.208;27.620;2023-08-01T08:05:39;100696.66;;;30.52;100.00
36014;BME280;22275;43.208;27.620;2023-08-01T08:08:06;100706.66;;;30.58;100.00
36014;BME280;22275;43.208;27.620;2023-08-01T08:10:33;100694.53;;;30.54;100.00
36014;BME280;22275;43.208;27.620;2023-08-01T08:13:00;100704.16;;;30.82;100.00
36014;BME280;22275;43.208;27.620;2023-08-01T08:15:28;100697.91;;;30.74;100.00
36014;BME280;22275;43.208;27.620;2023-08-01T08:17:59;100690.72;;;30.62;100.00
36014;BME280;22275;43.208;27.620;2023-08-01T08:20:26;100697.50;;;30.53;100.00
36014;BME280;22275;43.208;27.620;2023-08-01T08:22:53;100700.09;;;30.35;100.00
36014;BME280;22275;43.208;27.620;2023-08-01T08:25:21;100695.66;;;30.47;100.00
36014;BME280;22275;43.208;27.620;2023-08-01T08:27:49;100682.34;;;30.63;100.00
36014;BME280;22275;43.208;27.620;2023-08-01T08:30:16;100683.13;;;30.46;100.00
36014;BME280;22275;43.208;27.620;2023-08-01T08:32:45;100694.09;;;30.26;100.00
36014;BME280;22275;43.208;27.620;2023-08-01T08:35:12;100690.47;;;30.14;100.00
36014;BME280;22275;43.208;27.620;2023-08-01T08:37:39;100686.16;;;30.00;100.00
36014;BME280;22275;43.208;27.620;2023-08-01T08:40:07;100691.25;;;30.14;100.00
36014;BME280;22275;43.208;27.620;2023-08-01T08:42:35;100684.31;;;30.25;100.00
36014;BME280;22275;43.208;27.620;2023-08-01T08:45:02;100695.44;;;30.17;100.00
36014;BME280;22275;43.208;27.620;2023-08-01T08:47:31;100694.25;;;30.06;100.00
36014;BME280;22275;43.208;27.620;2023-08-01T08:50:06;100672.38;;;30.26;100.00
36014;BME280;22275;43.208;27.620;2023-08-01T08:52:34;100681.66;;;30.93;100.00
36014;BME280;22275;43.208;27.620;2023-08-01T08:55:01;100672.97;;;31.20;100.00
36014;BME280;22275;43.208;27.620;2023-08-01T08:57:30;100679.47;;;31.38;100.00
36014;BME280;22275;43.208;27.620;2023-08-01T08:59:58;100673.78;;;30.60;100.00
36014;BME280;22275;43.208;27.620;2023-08-01T09:02:26;100671.78;;;30.49;100.00
36014;BME280;22275;43.208;27.620;2023-08-01T09:04:54;100665.91;;;30.52;100.00
36014;BME280;22275;43.208;27.620;2023-08-01T09:07:24;100668.63;;;30.52;100.00
36014;BME280;22275;43.208;27.620;2023-08-01T09:09:53;100673.44;;;30.25;100.00
36014;BME280;22275;43.208;27.620;2023-08-01T09:12:20;100663.63;;;30.49;100.00
36014;BME280;22275;43.208;27.620;2023-08-01T09:14:48;100669.66;;;31.00;100.00
36014;BME280;22275;43.208;27.620;2023-08-01T09:17:17;100663.75;;;31.40;100.00
36014;BME280;22275;43.208;27.620;2023-08-01T09:19:44;100655.28;;;31.11;100.00
36014;BME280;22275;43.208;27.620;2023-08-01T09:22:12;100654.19;;;31.19;100.00
36014;BME280;22275;43.208;27.620;2023-08-01T09:24:50;100650.69;;;31.48;100.00
36014;BME280;22275;43.208;27.620;2023-08-01T09:27:17;100660.44;;;31.01;100.00
36014;BME280;22275;43.208;27.620;2023-08-01T09:29:45;100653.78;;;30.97;100.00
36014;BME280;22275;43.208;27.620;2023-08-01T09:32:13;100662.44;;;30.88;100.00
36014;BME280;22275;43.208;27.620;2023-08-01T09:34:41;100655.88;;;31.31;100.00
36014;BME280;22275;43.208;27.620;2023-08-01T09:37:08;100647.06;;;31.36;100.00
36014;BME280;22275;43.208;27.620;2023-08-01T09:39:36;100642.09;;;31.63;100.00
36014;BME280;22275;43.208;27.620;2023-08-01T09:42:05;100657.34;;;31.16;100.00
36014;BME280;22275;43.208;27.620;2023-08-01T09:44:35;100651.75;;;30.93;100.00
36014;BME280;22275;43.208;27.620;2023-08-01T09:47:04;100648.97;;;30.99;100.00
36014;BME280;22275;43.208;27.620;2023-08-01T09:49:32;100651.19;;;31.02;100.00
36014;BME280;22275;43.208;27.620;2023-08-01T09:52:00;100649.09;;;31.04;100.00
36014;BME280;22275;43.208;27.620;2023-08-01T09:54:27;100645.31;;;31.42;100.00
36014;BME280;22275;43.208;27.620;2023-08-01T09:56:55;100634.88;;;31.20;100.00
36014;BME280;22275;43.208;27.620;2023-08-01T09:59:25;100631.41;;;31.13;100.00
36014;BME280;22275;43.208;27.620;2023-08-01T10:01:53;100633.94;;;31.63;100.00
36014;BME280;22275;43.208;27.620;2023-08-01T10:04:27;100619.56;;;32.15;100.00
36014;BME280;22275;43.208;27.620;2023-08-01T10:06:58;100614.09;;;32.38;100.00
36014;BME280;22275;43.208;27.620;2023-08-01T10:09:25;100621.41;;;32.03;100.00
36014;BME280;22275;43.208;27.620;2023-08-01T10:11:56;100626.69;;;31.57;100.00
36014;BME280;22275;43.208;27.620;2023-08-01T10:14:25;100625.16;;;31.13;100.00
36014;BME280;22275;43.208;27.620;2023-08-01T10:16:54;100618.69;;;30.89;100.00
36014;BME280;22275;43.208;27.620;2023-08-01T10:19:21;100629.31;;;30.72;100.00
36014;BME280;22275;43.208;27.620;2023-08-01T10:21:49;100613.69;;;31.22;100.00
36014;BME280;22275;43.208;27.620;2023-08-01T10:24:17;100600.97;;;31.94;100.00
36014;BME280;22275;43.208;27.620;2023-08-01T10:26:46;100602.00;;;32.11;100.00
36014;BME280;22275;43.208;27.620;2023-08-01T10:29:13;100594.88;;;32.22;100.00
36014;BME280;22275;43.208;27.620;2023-08-01T10:31:51;100596.47;;;31.88;100.00
36014;BME280;22275;43.208;27.620;2023-08-01T10:34:19;100593.06;;;31.93;100.00
36014;BME280;22275;43.208;27.620;2023-08-01T10:36:54;100595.06;;;31.97;100.00
36014;BME280;22275;43.208;27.620;2023-08-01T10:39:22;100586.44;;;31.59;100.00
36014;BME280;22275;43.208;27.620;2023-08-01T10:41:57;100581.72;;;31.66;100.00
36014;BME280;22275;43.208;27.620;2023-08-01T10:44:25;100585.44;;;31.83;100.00
36014;BME280;22275;43.208;27.620;2023-08-01T10:46:55;100592.50;;;31.61;100.00
36014;BME280;22275;43.208;27.620;2023-08-01T10:49:34;100578.28;;;32.12;100.00
36014;BME280;22275;43.208;27.620;2023-08-01T10:52:01;100572.38;;;32.26;100.00
36014;BME280;22275;43.208;27.620;2023-08-01T10:54:28;100563.13;;;32.04;100.00
36014;BME280;22275;43.208;27.620;2023-08-01T10:56:57;100579.66;;;31.91;100.00
36014;BME280;22275;43.208;27.620;2023-08-01T10:59:25;100567.34;;;32.00;100.00
36014;BME280;22275;43.208;27.620;2023-08-01T11:01:58;100567.34;;;32.00;100.00
36014;BME280;22275;43.208;27.620;2023-08-01T11:04:25;100563.28;;;31.91;100.00
36014;BME280;22275;43.208;27.620;2023-08-01T11:06:54;100566.75;;;31.57;100.00
36014;BME280;22275;43.208;27.620;2023-08-01T11:09:23;100557.50;;;31.99;100.00
36014;BME280;22275;43.208;27.620;2023-08-01T11:11:52;100553.19;;;32.10;100.00
36014;BME280;22275;43.208;27.620;2023-08-01T11:14:20;100549.97;;;32.13;100.00
36014;BME280;22275;43.208;27.620;2023-08-01T11:16:49;100536.22;;;32.08;100.00
36014;BME280;22275;43.208;27.620;2023-08-01T11:19:22;100538.56;;;32.16;100.00
36014;BME280;22275;43.208;27.620;2023-08-01T11:21:49;100542.97;;;32.05;100.00
36014;BME280;22275;43.208;27.620;2023-08-01T11:24:18;100526.41;;;32.18;100.00
36014;BME280;22275;43.208;27.620;2023-08-01T11:26:47;100522.69;;;32.36;100.00
36014;BME280;22275;43.208;27.620;2023-08-01T11:29:15;100530.19;;;32.64;100.00
36014;BME280;22275;43.208;27.620;2023-08-01T11:31:53;100530.53;;;32.21;100.00
36014;BME280;22275;43.208;27.620;2023-08-01T11:34:22;100523.53;;;32.13;100.00
36014;BME280;22275;43.208;27.620;2023-08-01T11:36:49;100522.84;;;32.06;100.00
36014;BME280;22275;43.208;27.620;2023-08-01T11:39:17;100524.50;;;31.54;100.00
36014;BME280;22275;43.208;27.620;2023-08-01T11:41:44;100528.06;;;31.55;100.00
36014;BME280;22275;43.208;27.620;2023-08-01T11:44:12;100525.16;;;31.91;100.00
36014;BME280;22275;43.208;27.620;2023-08-01T11:46:39;100511.44;;;32.56;100.00
36014;BME280;22275;43.208;27.620;2023-08-01T11:49:07;100516.44;;;32.35;100.00
36014;BME280;22275;43.208;27.620;2023-08-01T11:51:43;100510.63;;;32.20;100.00
36014;BME280;22275;43.208;27.620;2023-08-01T11:54:11;100512.72;;;32.53;100.00
36014;BME280;22275;43.208;27.620;2023-08-01T11:56:39;100511.19;;;32.46;100.00
36014;BME280;22275;43.208;27.620;2023-08-01T11:59:09;100506.66;;;32.51;100.00
36014;BME280;22275;43.208;27.620;2023-08-01T12:01:41;100504.81;;;32.28;100.00
36014;BME280;22275;43.208;27.620;2023-08-01T12:04:08;100502.44;;;32.43;100.00
36014;BME280;22275;43.208;27.620;2023-08-01T12:06:36;100491.97;;;32.52;100.00
36014;BME280;22275;43.208;27.620;2023-08-01T12:09:10;100488.03;;;33.11;100.00
36014;BME280;22275;43.208;27.620;2023-08-01T12:11:38;100477.28;;;33.21;100.00
36014;BME280;22275;43.208;27.620;2023-08-01T12:14:07;100489.38;;;32.97;100.00
36014;BME280;22275;43.208;27.620;2023-08-01T12:16:35;100495.66;;;32.58;100.00
36014;BME280;22275;43.208;27.620;2023-08-01T12:19:03;100488.03;;;32.71;100.00
36014;BME280;22275;43.208;27.620;2023-08-01T12:21:32;100479.03;;;32.71;100.00
36014;BME280;22275;43.208;27.620;2023-08-01T12:24:00;100467.44;;;32.92;100.00
36014;BME280;22275;43.208;27.620;2023-08-01T12:26:29;100465.22;;;33.17;100.00
36014;BME280;22275;43.208;27.620;2023-08-01T12:28:56;100454.47;;;33.27;100.00
36014;BME280;22275;43.208;27.620;2023-08-01T12:31:24;100454.25;;;33.45;100.00
36014;BME280;22275;43.208;27.620;2023-08-01T12:33:51;100451.22;;;33.59;100.00